createdAt,value
2022-08-25T00:03:14.500Z,99.73
2022-08-25T00:08:18.467Z,99.67
2022-08-25T00:13:21.190Z,99.47
2022-08-25T00:18:28.570Z,98.57
2022-08-25T00:23:31.930Z,98.58
2022-08-25T00:28:36.586Z,98.64
2022-08-25T00:33:39.441Z,98.88
2022-08-25T00:38:44.044Z,99.28
2022-08-25T00:43:48.945Z,99.73
2022-08-25T00:48:58.261Z,99.90
2022-08-25T00:54:02.798Z,99.51
2022-08-25T00:59:05.933Z,99.20
2022-08-25T01:04:09.053Z,99.19
2022-08-25T01:09:14.150Z,98.86
2022-08-25T01:14:19.965Z,98.80
2022-08-25T01:19:22.721Z,98.40
2022-08-25T01:24:44.235Z,97.99
2022-08-25T01:29:46.967Z,97.91
2022-08-25T01:34:49.881Z,97.25
2022-08-25T01:39:55.102Z,96.84
2022-08-25T01:44:57.859Z,96.42
2022-08-25T01:50:00.643Z,95.91
2022-08-25T01:55:05.279Z,95.54
2022-08-25T02:00:12.830Z,95.11
2022-08-25T02:05:18.487Z,94.62
2022-08-25T02:10:25.640Z,94.15
2022-08-25T02:15:28.525Z,94.05
2022-08-25T02:20:31.307Z,93.69
2022-08-25T02:25:34.409Z,93.05
2022-08-25T02:30:39.053Z,93.11
2022-08-25T02:35:42.381Z,93.14
2022-08-25T02:40:45.107Z,93.33
2022-08-25T02:45:48.157Z,93.00
2022-08-25T02:50:52.940Z,93.13
2022-08-25T02:55:55.985Z,93.09
2022-08-25T03:00:58.740Z,93.33
2022-08-25T03:06:02.593Z,93.52
2022-08-25T03:11:06.513Z,93.91
2022-08-25T03:16:11.453Z,93.50
2022-08-25T03:21:16.477Z,93.44
2022-08-25T03:26:49.331Z,93.16
2022-08-25T03:31:54.937Z,93.31
2022-08-25T03:36:58.934Z,93.41
2022-08-25T03:42:03.166Z,93.49
2022-08-25T03:47:07.252Z,93.35
2022-08-25T03:52:10.570Z,93.30
2022-08-25T03:57:13.604Z,93.93
2022-08-25T04:02:16.337Z,93.55
2022-08-25T04:07:20.038Z,93.37
2022-08-25T04:12:23.926Z,93.19
2022-08-25T04:17:26.924Z,93.16
2022-08-25T04:22:31.170Z,93.05
2022-08-25T04:27:37.614Z,92.38
2022-08-25T04:32:40.408Z,91.95
2022-08-25T04:37:43.309Z,91.54
2022-08-25T04:42:48.057Z,90.67
2022-08-25T04:47:54.845Z,89.38
2022-08-25T04:52:58.706Z,88.85
2022-08-25T04:58:01.568Z,87.57
2022-08-25T05:03:05.976Z,86.27
2022-08-25T05:08:08.927Z,85.63
2022-08-25T05:13:11.829Z,86.00
2022-08-25T05:18:14.737Z,87.34
2022-08-25T05:23:17.832Z,88.45
2022-08-25T05:28:21.171Z,89.70
2022-08-25T05:33:24.017Z,90.50
2022-08-25T05:38:27.450Z,91.33
2022-08-25T05:43:31.105Z,91.10
2022-08-25T05:48:34.416Z,91.38
2022-08-25T05:53:39.245Z,91.41
2022-08-25T05:58:43.575Z,91.72
2022-08-25T06:03:47.831Z,91.75
2022-08-25T06:08:50.689Z,91.91
2022-08-25T06:13:54.271Z,91.78
2022-08-25T06:18:57.043Z,92.66
2022-08-25T06:23:59.986Z,93.63
2022-08-25T06:29:03.957Z,93.64
2022-08-25T06:34:06.805Z,93.27
2022-08-25T06:39:10.586Z,92.45
2022-08-25T06:44:13.490Z,92.02
2022-08-25T06:49:16.234Z,91.74
2022-08-25T06:54:18.943Z,91.29
2022-08-25T06:59:22.381Z,90.95
2022-08-25T07:04:25.793Z,89.77
2022-08-25T07:09:28.993Z,87.90
2022-08-25T07:14:31.751Z,87.52
2022-08-25T07:19:34.834Z,86.58
2022-08-25T07:24:37.624Z,86.40
2022-08-25T07:29:42.214Z,85.39
2022-08-25T07:35:04.354Z,85.10
2022-08-25T07:40:08.347Z,84.41
2022-08-25T07:45:12.652Z,83.45
2022-08-25T07:50:15.411Z,82.74
2022-08-25T07:55:18.460Z,81.72
2022-08-25T08:00:32.173Z,81.05
2022-08-25T08:05:37.454Z,80.34
2022-08-25T08:11:04.030Z,79.53
2022-08-25T08:16:09.948Z,78.74
2022-08-25T08:21:19.230Z,77.76
2022-08-25T08:26:36.526Z,76.74
2022-08-25T08:31:48.648Z,75.46
2022-08-25T08:36:52.090Z,73.97
2022-08-25T08:42:19.246Z,72.56
2022-08-25T08:47:35.847Z,71.52
2022-08-25T08:52:48.779Z,70.94
2022-08-25T08:57:55.795Z,70.60
2022-08-25T09:03:07.700Z,70.72
2022-08-25T09:08:13.775Z,71.43
2022-08-25T09:14:00.419Z,72.11
2022-08-25T09:19:32.149Z,72.18
2022-08-25T09:24:52.669Z,72.86
2022-08-25T09:30:10.199Z,73.58
2022-08-25T09:35:26.344Z,73.10
2022-08-25T09:40:35.451Z,71.84
2022-08-25T09:45:46.425Z,70.67
2022-08-25T09:50:51.438Z,69.07
2022-08-25T09:56:04.705Z,67.46
2022-08-25T10:01:25.790Z,65.86
2022-08-25T10:06:43.532Z,64.45
2022-08-25T10:11:48.509Z,63.11
2022-08-25T10:16:53.469Z,62.39
2022-08-25T10:22:12.827Z,61.93
2022-08-25T10:27:39.504Z,61.22
2022-08-25T10:32:52.099Z,58.31
2022-08-25T10:37:59.070Z,55.65
2022-08-25T10:43:43.689Z,54.77
2022-08-25T10:49:10.631Z,53.10
2022-08-25T10:54:52.027Z,51.53
2022-08-25T11:00:14.118Z,50.58
2022-08-25T11:05:31.186Z,49.84
2022-08-25T11:11:02.662Z,48.85
2022-08-25T11:16:19.208Z,47.40
2022-08-25T11:21:48.846Z,44.52
2022-08-25T11:26:56.281Z,40.94
2022-08-25T11:32:02.090Z,36.15
2022-08-25T11:37:34.900Z,34.79
2022-08-25T11:43:20.270Z,35.91
2022-08-25T11:48:30.409Z,38.00
2022-08-25T11:53:37.965Z,38.64
2022-08-25T11:58:53.931Z,39.79
2022-08-25T12:04:34.057Z,40.51
2022-08-25T12:10:10.997Z,41.56
2022-08-25T12:16:00.564Z,42.92
2022-08-25T12:21:06.448Z,43.82
2022-08-25T12:26:30.326Z,44.88
2022-08-25T12:32:07.189Z,45.23
2022-08-25T12:37:15.780Z,45.16
2022-08-25T12:42:38.678Z,44.62
2022-08-25T12:47:47.613Z,44.53
2022-08-25T12:52:52.786Z,44.11
2022-08-25T12:57:59.047Z,43.67
2022-08-25T13:03:01.916Z,43.38
2022-08-25T13:08:49.600Z,43.22
2022-08-25T13:14:15.494Z,42.85
2022-08-25T13:19:20.291Z,43.37
2022-08-25T13:24:32.085Z,43.68
2022-08-25T13:29:58.357Z,44.07
2022-08-25T13:35:08.909Z,45.02
2022-08-25T13:40:27.809Z,45.96
2022-08-25T13:45:41.234Z,46.59
2022-08-25T13:50:51.629Z,47.33
2022-08-25T13:55:58.924Z,47.73
2022-08-25T14:01:23.206Z,47.59
2022-08-25T14:06:29.670Z,47.41
2022-08-25T14:11:48.703Z,47.71
2022-08-25T14:17:05.008Z,48.34
2022-08-25T14:22:19.750Z,48.66
2022-08-25T14:27:22.729Z,49.41
2022-08-25T14:32:25.488Z,49.94
2022-08-25T14:37:29.296Z,50.39
2022-08-25T14:42:35.253Z,51.05
2022-08-25T14:47:38.325Z,51.58
2022-08-25T14:52:43.548Z,51.55
2022-08-25T14:57:47.115Z,51.36
2022-08-25T15:02:51.717Z,51.19
2022-08-25T15:08:14.892Z,49.98
2022-08-25T15:13:17.852Z,49.11
2022-08-25T15:18:22.803Z,48.42
2022-08-25T15:23:26.445Z,47.88
2022-08-25T15:28:29.449Z,47.39
2022-08-25T15:33:33.712Z,47.80
2022-08-25T15:38:37.568Z,47.99
2022-08-25T15:43:40.813Z,48.36
2022-08-25T15:48:43.689Z,47.54
2022-08-25T15:53:47.128Z,47.79
2022-08-25T15:58:50.730Z,48.19
2022-08-25T16:03:54.774Z,48.96
2022-08-25T16:08:58.977Z,49.92
2022-08-25T16:14:02.525Z,51.21
2022-08-25T16:19:06.889Z,52.46
2022-08-25T16:24:09.744Z,53.80
2022-08-25T16:29:14.619Z,55.01
2022-08-25T16:34:17.352Z,55.92
2022-08-25T16:39:23.963Z,56.96
2022-08-25T16:44:27.244Z,57.94
2022-08-25T16:49:31.247Z,58.96
2022-08-25T16:54:52.392Z,60.07
2022-08-25T16:59:55.928Z,61.02
2022-08-25T17:04:59.387Z,61.98
2022-08-25T17:10:05.349Z,62.89
2022-08-25T17:15:09.421Z,63.80
2022-08-25T17:20:12.108Z,64.49
2022-08-25T17:25:14.966Z,65.41
2022-08-25T17:30:17.795Z,66.68
2022-08-25T17:35:20.851Z,67.65
2022-08-25T17:40:24.938Z,68.97
2022-08-25T17:45:29.786Z,69.79
2022-08-25T17:50:36.304Z,70.89
2022-08-25T17:55:43.142Z,71.81
2022-08-25T18:00:47.099Z,72.78
2022-08-25T18:05:50.407Z,73.49
2022-08-25T18:10:53.215Z,73.99
2022-08-25T18:15:55.986Z,75.05
2022-08-25T18:20:58.790Z,75.42
2022-08-25T18:26:02.645Z,75.97
2022-08-25T18:31:05.847Z,76.38
2022-08-25T18:36:11.211Z,77.13
2022-08-25T18:41:14.025Z,77.87
2022-08-25T18:46:17.142Z,78.42
2022-08-25T18:51:26.251Z,78.74
2022-08-25T18:56:30.250Z,79.08
2022-08-25T19:01:33.078Z,79.65
2022-08-25T19:06:37.722Z,79.93
2022-08-25T19:11:40.592Z,80.46
2022-08-25T19:16:44.390Z,80.77
2022-08-25T19:21:48.241Z,81.10
2022-08-25T19:26:54.567Z,81.51
2022-08-25T19:32:01.170Z,81.82
2022-08-25T19:37:06.076Z,82.32
2022-08-25T19:42:35.098Z,82.59
2022-08-25T19:47:33.090Z,83.02
2022-08-25T19:52:37.166Z,83.44
2022-08-25T19:57:42.630Z,83.94
2022-08-25T20:02:47.291Z,84.21
2022-08-25T20:07:54.068Z,84.32
2022-08-25T20:12:56.860Z,84.78
2022-08-25T20:18:00.990Z,85.10
2022-08-25T20:23:24.316Z,85.66
2022-08-25T20:28:27.059Z,86.14
2022-08-25T20:33:30.635Z,86.49
2022-08-25T20:38:33.665Z,86.92
2022-08-25T20:43:36.363Z,87.42
2022-08-25T20:48:39.290Z,87.69
2022-08-25T20:53:43.944Z,88.24
2022-08-25T20:58:48.683Z,88.89
2022-08-25T21:03:51.419Z,89.10
2022-08-25T21:08:54.629Z,89.70
2022-08-25T21:13:58.884Z,90.11
2022-08-25T21:19:02.463Z,90.69
2022-08-25T21:24:09.701Z,91.34
2022-08-25T21:29:15.245Z,91.70
2022-08-25T21:34:20.088Z,92.11
2022-08-25T21:39:26.451Z,92.31
2022-08-25T21:44:30.257Z,92.84
2022-08-25T21:49:37.324Z,92.93
2022-08-25T21:54:40.812Z,93.37
2022-08-25T21:59:43.955Z,93.83
2022-08-25T22:04:48.789Z,94.54
2022-08-25T22:09:52.057Z,94.62
2022-08-25T22:14:55.612Z,94.80
2022-08-25T22:19:58.993Z,95.31
2022-08-25T22:25:01.906Z,95.77
2022-08-25T22:30:05.706Z,96.03
2022-08-25T22:35:09.515Z,97.03
2022-08-25T22:40:13.254Z,98.05
2022-08-25T22:45:17.537Z,98.42
2022-08-25T22:50:20.456Z,98.53
2022-08-25T22:55:23.804Z,98.92
2022-08-25T23:00:27.416Z,99.87
2022-08-25T23:05:30.273Z,99.94
2022-08-25T23:10:34.592Z,100.00
2022-08-25T23:15:38.108Z,100.00
2022-08-25T23:20:59.801Z,100.00
2022-08-25T23:26:05.340Z,100.00
2022-08-25T23:31:09.549Z,100.00
2022-08-25T23:36:15.955Z,100.00
2022-08-25T23:41:23.201Z,100.00
2022-08-25T23:46:29.129Z,100.00
2022-08-25T23:51:34.229Z,100.00
2022-08-25T23:56:44.700Z,100.00
